Airfield :
LOGIN :

Register | Disclaimer

   EN    FR    IT 

 










Legend :    VFR   Marginal VFR   IFR   Intensive IFR   Very Intensive IFR
Visi :
Ceiling :
>= 8 km
>= 3000ft
5 to 8 km
1000 to 3000 ft
1500m to 5 km
500 to 1000 ft
800 to 1500m
200 to 500 ft
< 800m
< 200 ft
Symbols :   Thunderstorms  Fog  Heavy snow  Heavy precipitations  Wind > 20 kt
SIGMETs :     Misc.  Thunderstorms  Icing  Turbulence  Mountain Waves  Volcanic Ashes







- Airport Elevation : 49 ft
- IATA code : SEN
- Download approach charts


EGMC - Southend

CURRENT METAR :
  • 131650Z 28015KT 7000 FEW018 08/04 Q0989

EXPIRED METARs :
  • 131620Z 23020KT 7000 SHRA BKN018 09/06 Q0989
  • 131550Z 22014KT 9999 VCSH SCT022 BKN039 09/06 Q0989
  • 131520Z 22013KT 9999 SCT018 BKN024 08/06 Q0990
  • 131450Z 22013KT 9999 SCT018 BKN030 08/05 Q0990
  • 131420Z 21012KT 9999 FEW019 SCT023 08/06 Q0991
  • 131350Z 22011KT 9999 -RA FEW011 SCT019 08/06 Q0992

TAF AMD TAF EGMC
Valid from the 13 at 16:00 until the 14 at 00:00 UTC


131610Z 1316/1324 24015KT 9999 SCT025
TEMPO 1316/1322 28018G28KT 7000 SHRA BKN014
No reported NOTAMs for that airfield.
1 SIGMET reported for the London FIR (EGTT) :
 
Severe turbulence
EGTT SIGMET 02 VALID 131500/131900 EGRR
EGTT LONDON FIR SEV TURB FCST W OF LINE N5204 W00600 - N4903 W00654 SFC/FL060 MOV E 50KT NC=



MET'MAP, your aeronautical weather chart ! - Copyright ORBIFLY December 2007 - Disclaimer

ORBIFLY MET'MAP TEAM :

Programming & Development : Alexandra Zaïnal
Concept & Development : Baudouin d'Aumeries
Co-Development & Prog : Marc-Olivier Méhu
Technical & hardware support : Manuel Goepfert

Contact : metmap@orbifly.com




SOURCES & CREDITS :

   NOAA